Time;durP1;ratioP1;P1;durP2;ratioP2;P2;SDS_P1;SDS_P2;PMS_P1;PMS_P2;Temp;Humidity;BMP_temperature;BMP_pressure;BME280_temperature;BME280_humidity;BME280_pressure;Samples;Min_cycle;Max_cycle;Signal;HPM_P1;HPM_P2
2023/08/24 00:00:59;;;;;;;8.68;5.70;;;;;;;16.84;96.22;98992.53;4999882;28;20045;-41
2023/08/24 00:03:25;;;;;;;10.75;6.45;;;;;;;16.68;96.10;98956.03;5028945;28;20133;-40
2023/08/24 00:05:52;;;;;;;10.57;5.93;;;;;;;16.88;95.89;98989.56;5030513;28;20580;-40
2023/08/24 00:08:18;;;;;;;7.63;6.03;;;;;;;16.60;95.96;98934.72;5028949;28;20500;-41
2023/08/24 00:10:46;;;;;;;8.48;5.63;;;;;;;16.91;95.34;98984.09;5027614;28;20041;-40
2023/08/24 00:13:13;;;;;;;10.75;6.00;;;;;;;16.91;95.19;98993.75;5031487;28;20420;-39
2023/08/24 00:15:39;;;;;;;7.63;5.50;;;;;;;16.73;94.67;98974.06;5027506;28;20043;-39
2023/08/24 00:18:06;;;;;;;6.13;4.95;;;;;;;16.87;94.21;98992.28;5031398;28;20038;-39
2023/08/24 00:20:32;;;;;;;6.50;5.15;;;;;;;16.89;93.76;99004.38;5026445;28;20417;-41
2023/08/24 00:22:59;;;;;;;6.80;4.90;;;;;;;16.81;93.23;98990.09;5027871;28;20049;-39
2023/08/24 00:25:25;;;;;;;5.30;4.63;;;;;;;16.85;92.81;98999.47;5008733;28;20049;-41
2023/08/24 00:27:54;;;;;;;7.80;4.53;;;;;;;16.87;92.19;99000.16;5049636;28;20425;-40
2023/08/24 00:30:20;;;;;;;;;;;;;;;16.88;91.96;99007.09;5023186;28;20041;-40
2023/08/24 00:32:46;;;;;;;5.65;4.25;;;;;;;16.85;91.95;99002.91;5029653;28;19917;-40
2023/08/24 00:35:12;;;;;;;5.05;3.88;;;;;;;16.70;91.69;98982.13;5029532;28;20041;-41
2023/08/24 00:37:39;;;;;;;4.85;4.07;;;;;;;16.88;91.49;99007.94;5028885;28;20040;-40
2023/08/24 00:40:09;;;;;;;5.57;4.40;;;;;;;16.90;91.39;99013.09;5011718;28;20033;-41
2023/08/24 00:42:41;;;;;;;8.32;4.07;;;;;;;16.92;91.43;99012.03;5028522;28;20041;-41
2023/08/24 00:45:09;;;;;;;5.38;3.53;;;;;;;16.91;91.41;99007.72;5027054;28;20061;-41
2023/08/24 00:47:40;;;;;;;4.72;3.83;;;;;;;16.65;91.31;98958.84;5029517;28;20076;-41
2023/08/24 00:50:09;;;;;;;5.53;3.45;;;;;;;16.78;90.90;98979.81;5029759;28;20045;-41
2023/08/24 00:52:39;;;;;;;5.07;3.70;;;;;;;16.77;91.01;98978.97;5030477;28;20147;-40
2023/08/24 00:55:06;;;;;;;6.47;3.42;;;;;;;16.97;90.76;99011.69;5027710;28;20061;-39
2023/08/24 00:57:32;;;;;;;5.20;3.58;;;;;;;16.98;90.53;99009.91;5028498;28;20069;-40
2023/08/24 01:00:02;;;;;;;4.43;3.40;;;;;;;16.97;90.45;98998.56;5028274;28;20041;-40
2023/08/24 01:02:30;;;;;;;3.95;3.03;;;;;;;16.98;90.11;99002.03;5029159;28;20051;-41
2023/08/24 01:04:56;;;;;;;4.68;3.22;;;;;;;16.97;90.17;99005.59;5037465;28;20136;-39
2023/08/24 01:07:22;;;;;;;3.80;3.17;;;;;;;16.98;90.27;99012.53;5027938;28;20037;-40
2023/08/24 01:09:48;;;;;;;4.43;3.50;;;;;;;16.80;90.06;98981.38;4993244;28;20038;-40
2023/08/24 01:12:37;;;;;;;4.53;3.20;;;;;;;16.99;90.19;99001.09;5028876;28;20505;-41
2023/08/24 01:15:08;;;;;;;6.40;3.47;;;;;;;16.98;90.29;99005.50;5042167;28;20037;-40
2023/08/24 01:17:36;;;;;;;4.13;3.45;;;;;;;16.98;89.81;99002.88;5003867;28;20099;-40
2023/08/24 01:20:05;;;;;;;4.90;3.45;;;;;;;16.99;90.00;99006.34;5027621;28;20052;-40
2023/08/24 01:22:38;;;;;;;4.53;4.00;;;;;;;16.99;90.00;99004.56;5023328;28;20033;-40
2023/08/24 01:25:07;;;;;;;4.53;3.42;;;;;;;17.00;89.99;99000.16;5028460;28;20432;-40
2023/08/24 01:27:34;;;;;;;5.57;3.50;;;;;;;17.00;90.21;98993.13;5011273;28;20041;-39
2023/08/24 01:30:03;;;;;;;5.88;3.53;;;;;;;16.99;90.00;98991.44;5018817;28;20095;-40
2023/08/24 01:32:33;;;;;;;5.25;3.72;;;;;;;17.01;90.07;99002.66;5023594;28;20132;-39
2023/08/24 01:35:04;;;;;;;5.18;3.38;;;;;;;16.99;89.96;99008.97;5024300;28;20516;-41
2023/08/24 01:37:30;;;;;;;5.22;3.50;;;;;;;16.89;89.97;98990.41;4992591;28;20553;-41
2023/08/24 01:40:05;;;;;;;4.75;3.70;;;;;;;17.01;90.17;99012.34;5026723;28;20037;-40
2023/08/24 01:42:34;;;;;;;5.57;3.45;;;;;;;17.03;90.19;99021.78;5025209;28;20406;-39
2023/08/24 01:45:03;;;;;;;5.80;3.90;;;;;;;17.02;90.49;99017.47;5029389;28;20052;-40
2023/08/24 01:47:30;;;;;;;7.60;4.07;;;;;;;17.03;90.48;99018.31;5023948;28;20045;-39
2023/08/24 01:49:56;;;;;;;8.32;3.60;;;;;;;16.82;90.31;98983.91;5028058;28;20037;-40
2023/08/24 01:52:23;;;;;;;5.30;3.92;;;;;;;17.03;90.69;99013.06;5022696;28;20132;-40
2023/08/24 01:54:49;;;;;;;7.85;3.80;;;;;;;17.03;90.78;99013.06;5010805;28;20037;-40
2023/08/24 01:57:14;;;;;;;5.40;3.50;;;;;;;17.01;90.41;99007.09;5027242;28;20461;-41
2023/08/24 01:59:40;;;;;;;7.43;3.90;;;;;;;17.00;90.55;99008.03;5009328;28;20199;-40
2023/08/24 02:02:06;;;;;;;7.13;3.78;;;;;;;16.98;90.72;99005.50;5025965;28;20037;-40
2023/08/24 02:04:33;;;;;;;9.43;3.90;;;;;;;16.88;90.64;98992.19;5011162;28;20543;-40
2023/08/24 02:06:59;;;;;;;4.75;3.67;;;;;;;17.00;90.79;98994.91;5028886;28;20041;-40
2023/08/24 02:09:24;;;;;;;7.78;3.92;;;;;;;17.02;90.88;99004.31;5025641;28;20052;-40
2023/08/24 02:11:51;;;;;;;5.03;3.30;;;;;;;17.02;90.83;99006.94;5025428;28;20076;-40
2023/08/24 02:14:17;;;;;;;10.60;4.10;;;;;;;16.99;90.79;99007.19;5026976;28;20041;-40
2023/08/24 02:16:44;;;;;;;8.32;3.70;;;;;;;17.01;90.97;99002.66;5009467;28;20487;-40
2023/08/24 02:19:10;;;;;;;9.77;4.25;;;;;;;17.01;91.14;99012.34;5026807;28;20041;-40
2023/08/24 02:21:36;;;;;;;7.65;3.72;;;;;;;17.02;91.01;99012.22;5027073;28;20559;-40
2023/08/24 02:24:04;;;;;;;8.13;4.45;;;;;;;17.00;90.53;99003.63;5025440;28;20138;-39
2023/08/24 02:26:31;;;;;;;5.57;3.38;;;;;;;17.00;90.80;99013.28;5052004;28;20041;-40
2023/08/24 02:28:57;;;;;;;6.47;4.05;;;;;;;16.87;90.51;98997.53;5026845;28;20076;-39
2023/08/24 02:31:24;;;;;;;6.53;3.55;;;;;;;16.83;90.33;98996.09;5017905;28;20029;-40
2023/08/24 02:33:50;;;;;;;12.80;7.97;;;;;;;16.97;90.54;99022.19;5024493;28;20053;-41
2023/08/24 02:36:17;;;;;;;5.32;3.15;;;;;;;16.97;90.39;99018.72;5027097;28;20045;-40
2023/08/24 02:38:42;;;;;;;9.80;4.97;;;;;;;16.94;90.11;99025.91;5026881;28;20044;-40
2023/08/24 02:41:10;;;;;;;9.68;6.07;;;;;;;16.93;90.29;99023.38;5019142;28;20085;-40
2023/08/24 02:43:37;;;;;;;6.90;5.05;;;;;;;16.78;89.61;98998.19;5023491;28;20072;-40
2023/08/24 02:46:06;;;;;;;5.30;3.90;;;;;;;16.87;89.43;99018.53;5031321;28;20402;-41
2023/08/24 02:48:32;;;;;;;5.80;3.85;;;;;;;16.71;88.93;98989.06;5024128;28;20052;-40
2023/08/24 02:50:59;;;;;;;4.88;3.70;;;;;;;16.83;89.20;99017.09;5019833;28;20045;-41
2023/08/24 02:53:26;;;;;;;7.00;3.70;;;;;;;16.80;89.11;99025.19;5019674;28;20533;-41
2023/08/24 02:55:52;;;;;;;5.45;3.70;;;;;;;16.62;89.05;99002.84;5025784;28;20072;-41
2023/08/24 02:58:18;;;;;;;7.28;3.60;;;;;;;16.74;89.09;99031.72;5023536;28;20560;-39
2023/08/24 03:00:43;;;;;;;6.88;4.93;;;;;;;16.72;89.17;99017.84;5040905;28;20046;-41
2023/08/24 03:03:09;;;;;;;6.80;4.82;;;;;;;16.62;88.89;99000.22;5025947;28;20030;-40
2023/08/24 03:05:35;;;;;;;6.90;3.42;;;;;;;16.74;88.78;99028.25;5026671;28;20065;-41
2023/08/24 03:08:04;;;;;;;6.78;4.18;;;;;;;16.71;88.91;99024.03;5025797;28;20147;-41
2023/08/24 03:10:31;;;;;;;8.10;3.88;;;;;;;16.60;88.78;99007.34;5026498;28;20052;-42
2023/08/24 03:12:57;;;;;;;5.93;3.53;;;;;;;16.76;88.67;99034.22;5008399;28;20041;-40
2023/08/24 03:15:23;;;;;;;7.10;3.92;;;;;;;16.78;88.51;99029.69;5025934;28;20079;-41
2023/08/24 03:17:49;;;;;;;6.07;4.32;;;;;;;16.82;88.24;99039.03;5006528;28;20406;-40
2023/08/24 03:20:16;;;;;;;6.90;3.35;;;;;;;16.85;88.12;99028.34;5025978;28;20152;-41
2023/08/24 03:22:43;;;;;;;6.95;3.60;;;;;;;16.86;88.11;99025.59;5007779;28;20497;-40
2023/08/24 03:25:09;;;;;;;6.03;3.63;;;;;;;16.84;87.70;99030.13;5008382;28;20044;-40
2023/08/24 03:27:35;;;;;;;5.55;3.40;;;;;;;16.84;87.61;99024.03;5007754;28;20033;-41
2023/08/24 03:30:04;;;;;;;6.93;3.85;;;;;;;16.85;86.97;99030.97;5027242;28;20106;-41
2023/08/24 03:32:30;;;;;;;9.38;4.25;;;;;;;16.91;86.82;99041.00;5025626;28;20049;-40
2023/08/24 03:35:00;;;;;;;8.25;3.88;;;;;;;16.91;86.87;99044.47;5023851;28;20071;-40
2023/08/24 03:37:26;;;;;;;6.20;4.32;;;;;;;16.92;87.00;99051.41;5012580;28;20049;-40
2023/08/24 03:39:53;;;;;;;7.07;5.05;;;;;;;16.82;86.88;99028.53;5029828;28;20070;-40
2023/08/24 03:42:19;;;;;;;7.18;4.35;;;;;;;16.93;86.86;99039.97;5029484;28;20050;-40
2023/08/24 03:44:45;;;;;;;9.50;4.55;;;;;;;16.79;86.75;99018.25;5026733;28;20064;-41
2023/08/24 03:47:11;;;;;;;7.47;5.53;;;;;;;16.94;86.64;99041.66;5028984;28;20052;-42
2023/08/24 03:49:37;;;;;;;5.95;4.30;;;;;;;16.97;86.59;99048.47;5029114;28;20161;-40
2023/08/24 03:52:03;;;;;;;9.63;6.10;;;;;;;17.00;86.24;99043.00;5026175;28;20060;-40
2023/08/24 03:54:29;;;;;;;5.78;4.20;;;;;;;17.03;86.26;99045.41;5013120;28;20045;-42
2023/08/24 03:56:55;;;;;;;8.35;4.68;;;;;;;16.98;86.08;99015.16;5030000;28;20049;-41
2023/08/24 03:59:21;;;;;;;5.70;3.83;;;;;;;17.18;85.54;99038.22;5029961;28;20096;-40
2023/08/24 04:01:48;;;;;;;7.22;5.47;;;;;;;17.22;85.20;99042.28;5026315;28;20115;-41
2023/08/24 04:04:17;;;;;;;6.63;4.25;;;;;;;17.24;85.20;99043.88;5028037;28;20188;-41
2023/08/24 04:06:43;;;;;;;7.30;4.95;;;;;;;17.31;84.95;99049.53;5026241;28;20033;-39
2023/08/24 04:09:09;;;;;;;5.07;4.10;;;;;;;17.02;84.77;98991.19;5018499;28;20079;-39
2023/08/24 04:11:37;;;;;;;6.47;4.50;;;;;;;17.33;84.22;99047.63;5027086;28;20077;-41
2023/08/24 04:14:03;;;;;;;9.00;4.85;;;;;;;17.36;84.20;99047.41;5011606;28;20181;-40
2023/08/24 04:16:29;;;;;;;7.20;5.10;;;;;;;17.28;83.98;99026.09;5011853;28;20095;-39
2023/08/24 04:18:55;;;;;;;12.05;5.20;;;;;;;17.43;83.67;99046.00;5022756;28;20476;-41
2023/08/24 04:21:21;;;;;;;7.85;4.32;;;;;;;17.43;83.43;99047.81;5028513;28;20045;-40
2023/08/24 04:23:47;;;;;;;8.35;4.03;;;;;;;17.35;82.92;99028.19;5020976;28;20045;-41
2023/08/24 04:26:13;;;;;;;9.20;5.05;;;;;;;17.23;82.44;99015.09;5030644;28;20087;-39
2023/08/24 04:28:39;;;;;;;11.63;6.20;;;;;;;17.50;82.05;99064.81;5029076;28;20542;-42
2023/08/24 04:31:05;;;;;;;8.68;5.25;;;;;;;17.48;81.76;99059.66;5029109;28;20041;-40
2023/08/24 04:33:31;;;;;;;9.63;5.53;;;;;;;17.50;81.82;99060.38;5030182;28;20606;-41
2023/08/24 04:35:58;;;;;;;8.60;5.22;;;;;;;17.52;81.55;99062.91;5030276;28;20052;-39
2023/08/24 04:38:24;;;;;;;10.63;5.57;;;;;;;17.52;81.27;99061.13;5029552;28;20037;-40
2023/08/24 04:40:52;;;;;;;8.85;5.25;;;;;;;17.46;80.78;99031.81;5029145;28;20064;-43
2023/08/24 04:43:20;;;;;;;9.00;4.85;;;;;;;17.61;80.47;99049.13;5023701;28;20110;-44
2023/08/24 04:45:48;;;;;;;8.15;4.93;;;;;;;17.65;79.94;99059.31;5026599;28;20041;-40
2023/08/24 04:48:14;;;;;;;7.18;4.50;;;;;;;17.47;79.44;99030.88;5022449;28;20137;-40
2023/08/24 04:50:43;;;;;;;7.25;4.60;;;;;;;17.70;79.14;99054.53;5029441;28;20244;-40
2023/08/24 04:53:09;;;;;;;8.95;5.53;;;;;;;17.71;78.76;99053.59;5020367;28;20045;-40
2023/08/24 04:55:35;;;;;;;8.38;5.47;;;;;;;17.78;78.36;99067.97;5028873;28;20048;-40
2023/08/24 04:58:01;;;;;;;9.25;4.68;;;;;;;17.78;77.87;99061.88;5028639;28;20060;-41
2023/08/24 05:00:27;;;;;;;9.05;5.10;;;;;;;17.78;78.02;99061.88;5012131;28;20276;-41
2023/08/24 05:02:52;;;;;;;8.88;4.63;;;;;;;17.79;77.99;99061.75;5024321;28;20430;-41
2023/08/24 05:05:19;;;;;;;7.63;5.03;;;;;;;17.78;77.83;99067.97;5027792;28;20119;-40
2023/08/24 05:07:44;;;;;;;8.55;5.72;;;;;;;17.76;77.69;99069.03;5026049;28;20144;-41
2023/08/24 05:10:11;;;;;;;7.60;5.47;;;;;;;17.68;77.86;99066.97;5029985;28;20112;-40
2023/08/24 05:12:36;;;;;;;7.72;5.22;;;;;;;17.64;78.28;99064.66;5021391;28;20487;-40
2023/08/24 05:15:04;;;;;;;13.40;7.05;;;;;;;17.57;78.42;99066.03;5029247;28;20049;-41
2023/08/24 05:17:31;;;;;;;12.30;5.25;;;;;;;17.49;78.96;99063.13;5025675;28;20451;-41
2023/08/24 05:19:58;;;;;;;9.23;5.75;;;;;;;17.19;78.63;99021.50;5028548;28;20508;-40
2023/08/24 05:22:24;;;;;;;9.13;5.15;;;;;;;17.43;79.19;99063.59;5027701;28;21674;-40
2023/08/24 05:24:50;;;;;;;12.38;6.00;;;;;;;17.37;79.60;99070.13;5018532;28;20190;-40
2023/08/24 05:27:16;;;;;;;8.02;4.97;;;;;;;17.33;79.95;99072.09;5027722;28;20048;-40
2023/08/24 05:29:43;;;;;;;10.05;5.70;;;;;;;17.33;80.23;99071.28;5011534;28;20049;-40
2023/08/24 05:32:09;;;;;;;12.50;5.38;;;;;;;17.29;80.23;99065.41;5027902;28;20048;-41
2023/08/24 05:34:35;;;;;;;13.25;6.20;;;;;;;17.06;80.38;99025.97;5027396;28;20070;-41
2023/08/24 05:37:01;;;;;;;15.57;8.63;;;;;;;17.28;80.69;99063.72;5010569;28;20063;-40
2023/08/24 05:39:27;;;;;;;11.60;6.43;;;;;;;17.28;80.60;99055.84;5029368;28;20037;-40
2023/08/24 05:41:53;;;;;;;11.40;5.65;;;;;;;17.23;80.73;99057.97;5026508;28;20037;-40
2023/08/24 05:44:19;;;;;;;9.60;5.60;;;;;;;17.23;80.60;99068.47;5023762;28;20041;-40
2023/08/24 05:46:46;;;;;;;8.43;5.47;;;;;;;17.19;80.90;99064.38;5028169;28;20127;-41
2023/08/24 05:49:12;;;;;;;8.98;5.80;;;;;;;17.16;80.77;99069.03;5011016;28;20523;-40
2023/08/24 05:51:38;;;;;;;12.93;5.78;;;;;;;17.11;81.17;99066.72;5029303;28;20037;-40
2023/08/24 05:54:04;;;;;;;9.50;5.68;;;;;;;17.07;81.12;99069.66;5002880;28;20452;-40
2023/08/24 05:56:30;;;;;;;7.70;5.85;;;;;;;17.01;81.20;99067.50;5027550;28;20785;-40
2023/08/24 05:58:58;;;;;;;11.38;5.95;;;;;;;16.88;81.69;99059.63;5025067;28;20045;-40
2023/08/24 06:01:24;;;;;;;11.15;5.78;;;;;;;16.77;81.86;99055.13;5026228;28;20037;-40
2023/08/24 06:03:50;;;;;;;11.15;5.80;;;;;;;16.93;82.27;99089.84;5024895;28;20041;-39
2023/08/24 06:06:16;;;;;;;10.73;5.18;;;;;;;16.92;82.08;99090.81;5024629;28;20093;-40
2023/08/24 06:08:42;;;;;;;9.43;5.03;;;;;;;16.90;81.97;99086.63;5028244;28;20076;-39
2023/08/24 06:11:09;;;;;;;8.85;5.10;;;;;;;16.88;81.64;99088.50;5028784;28;20176;-40
2023/08/24 06:13:35;;;;;;;6.95;4.85;;;;;;;16.85;81.71;99094.78;5005860;28;20133;-40
2023/08/24 06:16:01;;;;;;;11.20;4.50;;;;;;;16.76;81.95;99090.19;5019399;28;20053;-40
2023/08/24 06:18:28;;;;;;;12.85;5.13;;;;;;;16.65;81.96;99076.09;5008680;28;20041;-40
2023/08/24 06:20:54;;;;;;;12.77;4.85;;;;;;;16.64;82.02;99077.09;5024118;28;20068;-40
2023/08/24 06:23:21;;;;;;;8.65;4.65;;;;;;;16.78;81.79;99106.69;5033760;28;20048;-41
2023/08/24 06:25:47;;;;;;;9.10;3.85;;;;;;;16.79;81.74;99110.16;5026966;28;20795;-42
2023/08/24 06:28:13;;;;;;;9.32;4.28;;;;;;;16.79;81.32;99111.00;5028333;28;20037;-41
2023/08/24 06:30:42;;;;;;;7.32;4.50;;;;;;;16.77;81.01;99112.88;5026316;28;20045;-41
2023/08/24 06:33:10;;;;;;;11.30;4.03;;;;;;;16.75;80.77;99111.28;4999309;28;20061;-40
2023/08/24 06:35:36;;;;;;;7.82;4.07;;;;;;;16.76;80.77;99108.56;5022571;28;20041;-40
2023/08/24 06:38:03;;;;;;;7.75;3.88;;;;;;;16.69;81.02;99093.34;5028056;28;20081;-40
2023/08/24 06:40:30;;;;;;;9.23;4.40;;;;;;;16.85;80.84;99120.22;5023928;28;20038;-40
2023/08/24 06:42:56;;;;;;;9.13;4.80;;;;;;;16.89;80.48;99116.44;5020205;28;20091;-40
2023/08/24 06:45:22;;;;;;;6.25;4.55;;;;;;;16.92;80.43;99111.81;5026995;28;20091;-40
2023/08/24 06:47:49;;;;;;;7.00;4.18;;;;;;;16.96;80.06;99120.31;5026632;28;20041;-41
2023/08/24 06:50:15;;;;;;;8.02;4.60;;;;;;;17.07;80.09;99117.78;5020008;28;20045;-40
2023/08/24 06:52:41;;;;;;;10.60;4.50;;;;;;;17.13;79.87;99119.13;5028050;28;20042;-40
2023/08/24 06:55:11;;;;;;;8.07;5.80;;;;;;;17.16;79.75;99126.81;5010753;28;20064;-40
2023/08/24 06:57:38;;;;;;;9.65;5.80;;;;;;;17.13;79.12;99129.63;5024007;28;20033;-40
2023/08/24 07:00:12;;;;;;;6.63;4.90;;;;;;;16.96;78.74;99109.81;5022219;28;20094;-41
2023/08/24 07:02:39;;;;;;;10.50;6.90;;;;;;;17.05;78.82;99130.19;5025020;28;20060;-41
2023/08/24 07:05:05;;;;;;;6.35;4.38;;;;;;;17.03;78.96;99133.84;5023005;28;20072;-41
2023/08/24 07:07:31;;;;;;;6.82;4.53;;;;;;;17.01;78.54;99131.31;5013765;28;20493;-40
2023/08/24 07:09:57;;;;;;;11.75;6.13;;;;;;;16.99;78.70;99140.28;5008150;28;20081;-40
2023/08/24 07:12:23;;;;;;;9.00;5.15;;;;;;;17.00;78.52;99139.34;5027837;28;20111;-41
2023/08/24 07:14:49;;;;;;;6.38;5.13;;;;;;;17.01;78.86;99136.59;5027494;28;20494;-41
2023/08/24 07:17:14;;;;;;;12.13;4.97;;;;;;;17.01;78.88;99135.78;5027903;28;20045;-40
2023/08/24 07:19:40;;;;;;;9.27;5.03;;;;;;;17.00;78.79;99137.56;5023658;28;20045;-41
2023/08/24 07:22:06;;;;;;;7.57;4.53;;;;;;;16.85;78.64;99107.91;5057209;28;20425;-40
2023/08/24 07:24:33;;;;;;;5.88;4.47;;;;;;;17.06;78.75;99141.53;5034370;28;20513;-40
2023/08/24 07:26:59;;;;;;;7.43;4.50;;;;;;;17.10;78.61;99138.59;5024957;28;20041;-40
2023/08/24 07:29:25;;;;;;;8.20;4.20;;;;;;;17.21;78.03;99129.97;5029173;28;20044;-40
2023/08/24 07:31:51;;;;;;;11.98;4.40;;;;;;;17.45;77.15;99136.09;5006069;28;20091;-40
2023/08/24 07:34:17;;;;;;;14.18;7.93;;;;;;;17.59;75.75;99116.69;5024580;28;20132;-41
2023/08/24 07:36:44;;;;;;;8.07;4.03;;;;;;;17.90;74.85;99142.47;5019341;28;20045;-40
2023/08/24 07:39:11;;;;;;;10.18;5.55;;;;;;;18.00;73.95;99146.16;5023223;28;20041;-40
2023/08/24 07:41:37;;;;;;;7.57;4.18;;;;;;;18.00;73.45;99147.94;5018989;28;20046;-40
2023/08/24 07:44:03;;;;;;;8.05;3.78;;;;;;;17.93;73.42;99147.53;5021402;28;20041;-39
2023/08/24 07:46:29;;;;;;;5.88;3.25;;;;;;;17.83;73.19;99153.56;5027706;28;20041;-41
2023/08/24 07:48:56;;;;;;;5.90;3.63;;;;;;;17.74;73.38;99155.91;5025800;28;20049;-39
2023/08/24 07:51:22;;;;;;;6.45;3.50;;;;;;;17.68;73.14;99159.00;5026754;28;20050;-40
2023/08/24 07:53:49;;;;;;;8.10;4.20;;;;;;;17.60;73.13;99153.44;5027104;28;20037;-39
2023/08/24 07:56:14;;;;;;;5.75;3.30;;;;;;;17.61;73.37;99157.75;5027594;28;20512;-38
2023/08/24 07:58:40;;;;;;;7.15;3.72;;;;;;;17.63;73.21;99160.28;5022459;28;20047;-41
2023/08/24 08:01:06;;;;;;;7.47;4.20;;;;;;;17.52;72.97;99139.97;5007642;28;20052;-40
2023/08/24 08:03:32;;;;;;;7.15;3.80;;;;;;;17.68;73.37;99155.53;5026362;28;20626;-41
2023/08/24 08:05:58;;;;;;;10.68;3.63;;;;;;;17.73;73.38;99159.50;5017235;28;20104;-40
2023/08/24 08:08:24;;;;;;;6.53;3.35;;;;;;;17.84;73.32;99157.91;5019623;28;20103;-41
2023/08/24 08:11:00;;;;;;;7.85;4.20;;;;;;;18.10;72.85;99160.31;5025382;28;20042;-39
2023/08/24 08:13:28;;;;;;;8.85;3.30;;;;;;;18.41;71.74;99158.88;5017028;28;20106;-40
2023/08/24 08:15:54;;;;;;;9.18;4.88;;;;;;;18.58;70.25;99168.16;5028727;28;20069;-41
2023/08/24 08:18:20;;;;;;;6.20;3.40;;;;;;;18.74;69.38;99166.03;5009505;28;20046;-40
2023/08/24 08:20:50;;;;;;;6.43;3.03;;;;;;;18.94;68.56;99161.91;5021306;28;20091;-40
2023/08/24 08:23:16;;;;;;;6.22;3.25;;;;;;;19.19;67.67;99171.38;5023645;28;20034;-40
2023/08/24 08:25:42;;;;;;;5.22;3.10;;;;;;;19.30;66.91;99159.03;5027276;28;20908;-40
2023/08/24 08:28:08;;;;;;;4.88;3.03;;;;;;;19.27;66.01;99159.25;5040025;28;20071;-47
2023/08/24 08:30:33;;;;;;;8.32;3.30;;;;;;;19.21;65.68;99161.56;5028311;28;20037;-40
2023/08/24 08:33:00;;;;;;;4.32;3.35;;;;;;;19.09;65.65;99162.50;5032506;28;20091;-42
2023/08/24 08:35:26;;;;;;;6.78;3.60;;;;;;;18.91;65.86;99160.31;5019132;28;20524;-41
2023/08/24 08:37:53;;;;;;;4.22;2.92;;;;;;;18.84;65.86;99166.19;5011755;28;20087;-43
2023/08/24 08:40:19;;;;;;;6.10;3.20;;;;;;;18.48;66.32;99128.47;5028961;28;20535;-42
2023/08/24 08:42:45;;;;;;;3.67;3.08;;;;;;;18.57;66.46;99169.13;5028956;28;20041;-39
2023/08/24 08:45:11;;;;;;;4.97;3.55;;;;;;;18.43;66.92;99169.25;5021488;28;20128;-40
2023/08/24 08:47:38;;;;;;;5.43;3.45;;;;;;;18.35;67.37;99161.13;5025457;28;20164;-41
2023/08/24 08:50:04;;;;;;;8.20;4.10;;;;;;;18.29;67.44;99166.81;5012681;28;20077;-41
2023/08/24 08:52:33;;;;;;;7.00;3.63;;;;;;;18.09;67.83;99142.00;5028717;28;20041;-41
2023/08/24 08:55:00;;;;;;;;;;;;;;;18.22;67.97;99171.69;5030028;28;20463;-40
2023/08/24 08:57:25;;;;;;;6.32;3.72;;;;;;;18.16;68.01;99166.91;5012382;28;19916;-41
2023/08/24 08:59:52;;;;;;;6.28;3.60;;;;;;;18.20;67.91;99160.47;5028030;28;20042;-41
2023/08/24 09:02:20;;;;;;;7.38;4.32;;;;;;;18.26;67.57;99160.00;5028824;28;20045;-42
2023/08/24 09:04:47;;;;;;;6.78;4.90;;;;;;;18.35;67.02;99153.22;5009283;28;20556;-41
2023/08/24 09:07:13;;;;;;;7.40;4.82;;;;;;;18.45;66.88;99162.94;5014541;28;20045;-41
2023/08/24 09:09:39;;;;;;;5.13;3.40;;;;;;;18.56;66.76;99163.00;5028650;28;20049;-41
2023/08/24 09:12:06;;;;;;;7.25;3.88;;;;;;;18.61;66.74;99167.94;5029310;28;20091;-40
2023/08/24 09:14:33;;;;;;;8.45;3.40;;;;;;;18.75;66.68;99166.88;5030942;28;20045;-39
2023/08/24 09:16:59;;;;;;;4.28;3.42;;;;;;;18.96;66.34;99166.06;5035165;28;20036;-40
2023/08/24 09:19:29;;;;;;;6.55;3.20;;;;;;;19.09;65.39;99170.41;5025277;28;20038;-40
2023/08/24 09:21:59;;;;;;;5.05;3.10;;;;;;;19.21;64.60;99174.75;5019558;28;20532;-40
2023/08/24 09:24:35;;;;;;;5.53;3.83;;;;;;;19.38;64.19;99168.97;5028584;28;20052;-40
2023/08/24 09:27:18;;;;;;;6.90;3.20;;;;;;;19.70;63.28;99171.72;5018984;28;20041;-40
2023/08/24 09:29:51;;;;;;;5.43;3.92;;;;;;;19.96;62.54;99170.47;5028342;28;20136;-40
2023/08/24 09:32:34;;;;;;;7.38;3.90;;;;;;;20.10;61.79;99170.16;5021546;28;20417;-39
2023/08/24 09:35:08;;;;;;;7.10;3.60;;;;;;;19.87;61.58;99144.84;5027039;28;20508;-41
2023/08/24 09:37:35;;;;;;;5.65;3.60;;;;;;;20.08;61.48;99173.91;5026512;28;20505;-41
2023/08/24 09:40:07;;;;;;;5.45;3.60;;;;;;;20.00;61.25;99179.81;5021757;28;20125;-41
2023/08/24 09:42:43;;;;;;;7.50;4.13;;;;;;;20.01;61.11;99173.56;5027890;28;20048;-40
2023/08/24 09:45:13;;;;;;;5.30;2.97;;;;;;;20.09;61.15;99167.69;5027426;28;20056;-42
2023/08/24 09:47:45;;;;;;;8.20;4.75;;;;;;;20.19;61.09;99180.00;5026687;28;20125;-39
2023/08/24 09:50:11;;;;;;;4.78;3.40;;;;;;;20.19;61.04;99173.88;5028990;28;20061;-41
2023/08/24 09:52:38;;;;;;;10.75;3.10;;;;;;;20.09;61.08;99178.25;5028605;28;20551;-40
2023/08/24 09:55:07;;;;;;;6.97;3.33;;;;;;;19.97;61.21;99174.78;5025396;28;20045;-41
2023/08/24 09:57:40;;;;;;;4.75;3.03;;;;;;;19.76;61.73;99166.81;5021542;28;20124;-41
2023/08/24 10:00:14;;;;;;;6.25;3.35;;;;;;;19.67;61.82;99177.25;5022391;28;20100;-40
2023/08/24 10:02:50;;;;;;;8.27;3.00;;;;;;;19.49;61.61;99170.78;5026511;28;20056;-39
2023/08/24 10:05:21;;;;;;;4.03;2.80;;;;;;;19.40;61.87;99151.25;5023519;28;20061;-43
2023/08/24 10:07:55;;;;;;;7.93;2.85;;;;;;;19.59;61.83;99179.66;5009667;28;20123;-40
2023/08/24 10:10:23;;;;;;;4.00;3.25;;;;;;;19.68;61.52;99179.75;5021976;28;20048;-40
2023/08/24 10:12:51;;;;;;;4.57;3.05;;;;;;;19.77;60.66;99172.91;5021216;28;20426;-41
2023/08/24 10:15:18;;;;;;;4.97;2.63;;;;;;;19.81;60.45;99177.81;5018483;28;20516;-40
2023/08/24 10:17:45;;;;;;;6.47;2.70;;;;;;;19.88;60.29;99178.19;5017807;28;20049;-41
2023/08/24 10:20:11;;;;;;;6.68;3.00;;;;;;;20.06;60.13;99179.31;5024948;28;20049;-41
2023/08/24 10:22:40;;;;;;;4.38;2.60;;;;;;;20.28;59.27;99152.84;5009613;28;20425;-39
2023/08/24 10:25:07;;;;;;;3.58;2.45;;;;;;;20.83;57.81;99187.88;5023735;28;20532;-40
2023/08/24 10:27:33;;;;;;;3.25;2.25;;;;;;;20.99;57.14;99176.84;5008445;28;20056;-41
2023/08/24 10:29:59;;;;;;;3.17;2.42;;;;;;;21.21;56.56;99176.72;5009794;28;20041;-41
2023/08/24 10:32:26;;;;;;;5.57;2.60;;;;;;;21.50;56.06;99175.03;5024628;28;20737;-41
2023/08/24 10:34:52;;;;;;;5.07;2.50;;;;;;;21.64;54.99;99186.22;5019735;28;20045;-41
2023/08/24 10:37:25;;;;;;;4.72;2.70;;;;;;;21.71;54.43;99185.53;5026712;28;20037;-41
2023/08/24 10:39:51;;;;;;;5.28;3.25;;;;;;;21.63;54.57;99174.78;5020596;28;20045;-41
2023/08/24 10:42:16;;;;;;;5.35;2.60;;;;;;;21.49;54.81;99186.59;5032542;28;20053;-42
2023/08/24 10:44:46;;;;;;;4.20;2.92;;;;;;;21.34;54.81;99161.47;5025488;28;20037;-42
2023/08/24 10:47:22;;;;;;;9.45;4.18;;;;;;;21.41;55.35;99177.63;5014985;28;20045;-41
2023/08/24 10:49:54;;;;;;;3.85;3.25;;;;;;;21.31;55.28;99184.69;5020754;28;20132;-42
2023/08/24 10:52:24;;;;;;;5.57;3.60;;;;;;;21.18;55.22;99186.72;5037066;28;20132;-41
2023/08/24 10:54:52;;;;;;;5.38;3.30;;;;;;;21.17;55.36;99192.97;5021919;28;20041;-40
2023/08/24 10:57:29;;;;;;;4.65;3.05;;;;;;;21.11;55.54;99189.84;5023380;28;20448;-40
2023/08/24 11:00:13;;;;;;;4.20;3.50;;;;;;;20.99;56.03;99188.25;5023400;28;20124;-42
2023/08/24 11:02:48;;;;;;;4.07;2.40;;;;;;;20.90;55.98;99191.69;5021033;28;20045;-40
2023/08/24 11:05:27;;;;;;;7.25;3.20;;;;;;;20.84;55.80;99188.72;5023592;28;20057;-42
2023/08/24 11:07:59;;;;;;;4.80;3.20;;;;;;;20.51;55.76;99147.50;5024057;28;20142;-41
2023/08/24 11:10:46;;;;;;;4.80;2.92;;;;;;;20.67;56.16;99192.78;5008788;28;20033;-42
2023/08/24 11:13:14;;;;;;;7.45;2.55;;;;;;;20.39;56.43;99156.44;5020964;28;20051;-41
2023/08/24 11:15:45;;;;;;;6.35;3.03;;;;;;;20.61;56.48;99191.50;5025064;28;20128;-42
2023/08/24 11:18:23;;;;;;;4.95;2.53;;;;;;;20.62;55.96;99187.06;5023529;28;20063;-41
2023/08/24 11:20:49;;;;;;;6.70;2.83;;;;;;;20.68;56.01;99191.78;5018629;28;20038;-41
2023/08/24 11:23:15;;;;;;;4.68;2.75;;;;;;;20.98;55.63;99197.16;5020834;28;20056;-41
2023/08/24 11:25:41;;;;;;;5.35;2.10;;;;;;;21.70;53.97;99194.44;5023944;28;20525;-40
2023/08/24 11:28:07;;;;;;;3.35;2.00;;;;;;;22.11;52.65;99196.09;5024272;28;20103;-41
2023/08/24 11:30:34;;;;;;;4.32;2.45;;;;;;;22.22;52.45;99200.44;5019521;28;20539;-40
2023/08/24 11:33:00;;;;;;;7.25;5.18;;;;;;;22.21;52.21;99196.94;5008056;28;20424;-40